Time;durP1;ratioP1;P1;durP2;ratioP2;P2;SDS_P1;SDS_P2;PMS_P1;PMS_P2;Temp;Humidity;BMP_temperature;BMP_pressure;BME280_temperature;BME280_humidity;BME280_pressure;Samples;Min_cycle;Max_cycle;Signal;HPM_P1;HPM_P2
2021/09/09 00:00:29;;;;;;;;;;;;;;;15.72;70.68;99509.06;3312967;29;19921;-75
2021/09/09 00:02:10;;;;;;;;;;;;;;;15.73;70.49;99501.81;3314622;29;20370;-74
2021/09/09 00:03:51;;;;;;;;;;;;;;;15.73;70.42;99502.63;3313252;29;19925;-76
2021/09/09 00:05:32;;;;;;;;;;;;;;;15.75;70.43;99499.69;3313334;29;19933;-74
2021/09/09 00:07:14;;;;;;;;;;;;;;;15.75;70.14;99488.94;3313438;29;20377;-74
2021/09/09 00:08:54;;;;;;;;;;;;;;;15.74;70.25;99493.50;3309481;29;19929;-76
2021/09/09 00:10:35;;;;;;;;;;;;;;;15.73;70.50;99496.44;3313891;29;19936;-74
2021/09/09 00:12:17;;;;;;;;;;;;;;;15.73;70.35;99501.81;3306585;29;19936;-73
2021/09/09 00:13:57;;;;;;;;;;;;;;;15.71;70.18;99499.34;3313107;29;19988;-73
2021/09/09 00:15:40;;;;;;;;;;;;;;;15.69;70.49;99493.38;3314366;29;19988;-73
2021/09/09 00:17:20;;;;;;;;;;;;;;;15.72;70.44;99492.09;3312138;29;19929;-74
2021/09/09 00:19:01;;;;;;;;;;;;;;;15.74;70.28;99498.06;3311347;29;19995;-73
2021/09/09 00:20:44;;;;;;;;;;;;;;;15.74;70.21;99503.44;3314405;29;20021;-74
2021/09/09 00:22:25;;;;;;;;;;;;;;;15.75;70.47;99502.38;3314045;29;19964;-75
2021/09/09 00:24:06;;;;;;;;;;;;;;;15.74;70.24;99503.44;3312222;29;19929;-74
2021/09/09 00:25:48;;;;;;;;;;;;;;;15.71;70.33;99496.66;3314622;29;19936;-76
2021/09/09 00:27:31;;;;;;;;;;;;;;;15.72;70.10;99500.16;3312099;29;19936;-75
2021/09/09 00:29:12;;;;;;;;;;;;;;;15.73;70.30;99502.63;3308279;29;20040;-75
2021/09/09 00:30:53;;;;;;;;;;;;;;;15.73;70.17;99493.75;3309134;29;20409;-76
2021/09/09 00:32:35;;;;;;;;;;;;;;;15.72;69.99;99495.63;3312738;29;19936;-75
2021/09/09 00:34:16;;;;;;;;;;;;;;;15.72;70.15;99492.94;3314037;29;19974;-75
2021/09/09 00:35:57;;;;;;;;;;;;;;;15.72;70.10;99492.09;3314027;29;19935;-75
2021/09/09 00:37:37;;;;;;;;;;;;;;;15.72;69.92;99490.25;3312575;29;20002;-75
2021/09/09 00:39:18;;;;;;;;;;;;;;;15.73;69.96;99491.06;3311832;29;19929;-77
2021/09/09 00:40:59;;;;;;;;;;;;;;;15.73;69.87;99491.88;3313234;29;19937;-75
2021/09/09 00:42:42;;;;;;;;;;;;;;;15.71;70.06;99488.59;3313547;29;19929;-75
2021/09/09 00:44:24;;;;;;;;;;;;;;;15.70;70.16;99492.34;3313292;29;20385;-75
2021/09/09 00:46:04;;;;;;;;;;;;;;;15.68;70.31;99489.84;3313018;29;19929;-75
2021/09/09 00:47:44;;;;;;;;;;;;;;;15.69;70.03;99491.53;3312750;29;19955;-75
2021/09/09 00:49:25;;;;;;;;;;;;;;;15.68;70.21;99489.84;3297529;29;19936;-77
2021/09/09 00:51:05;;;;;;;;;;;;;;;15.67;69.92;99485.53;3310850;29;19929;-75
2021/09/09 00:52:47;;;;;;;;;;;;;;;15.65;70.48;99479.56;3312583;29;19936;-76
2021/09/09 00:54:28;;;;;;;;;;;;;;;15.62;70.33;99482.72;3311644;29;19925;-74
2021/09/09 00:56:09;;;;;;;;;;;;;;;15.60;70.17;99486.69;3313118;29;20020;-75
2021/09/09 00:57:50;;;;;;;;;;;;;;;15.58;70.26;99475.34;3311078;29;19925;-74
2021/09/09 00:59:33;;;;;;;;;;;;;;;15.58;70.18;99483.41;3310078;29;19930;-74
2021/09/09 01:01:14;;;;;;;;;;;;;;;15.57;70.64;99471.84;3311815;29;19996;-73
2021/09/09 01:02:54;;;;;;;;;;;;;;;15.56;70.04;99470.22;3313415;29;19929;-74
2021/09/09 01:04:35;;;;;;;;;;;;;;;15.55;70.50;99473.97;3313492;29;19929;-73
2021/09/09 01:06:15;;;;;;;;;;;;;;;15.54;70.41;99472.34;3312941;29;19929;-74
2021/09/09 01:07:56;;;;;;;;;;;;;;;15.54;70.34;99476.84;3312811;29;19929;-74
2021/09/09 01:09:36;;;;;;;;;;;;;;;15.54;70.32;99472.34;3310001;29;20983;-74
2021/09/09 01:11:17;;;;;;;;;;;;;;;15.53;70.18;99465.31;3313536;29;20386;-74
2021/09/09 01:12:57;;;;;;;;;;;;;;;15.53;70.36;99470.69;3312993;29;19937;-74
2021/09/09 01:14:38;;;;;;;;;;;;;;;15.52;70.43;99469.06;3312988;29;19929;-75
2021/09/09 01:16:19;;;;;;;;;;;;;;;15.50;70.60;99471.16;3312686;29;19983;-75
2021/09/09 01:17:59;;;;;;;;;;;;;;;15.52;70.40;99465.56;3313092;29;19935;-74
2021/09/09 01:19:40;;;;;;;;;;;;;;;15.53;70.02;99456.44;3309631;29;20298;-74
2021/09/09 01:21:20;;;;;;;;;;;;;;;15.51;70.49;99462.03;3311229;29;19933;-74
2021/09/09 01:23:00;;;;;;;;;;;;;;;15.48;70.51;99459.81;3313196;29;19929;-75
2021/09/09 01:24:41;;;;;;;;;;;;;;;15.46;70.39;99460.06;3313580;29;19929;-75
2021/09/09 01:26:30;;;;;;;;;;;;;;;15.45;70.47;99462.97;3312513;29;19932;-75
2021/09/09 01:28:11;;;;;;;;;;;;;;;15.42;70.56;99453.50;3313695;29;20390;-75
2021/09/09 01:29:51;;;;;;;;;;;;;;;15.44;70.78;99455.97;3312496;29;19929;-74
2021/09/09 01:31:34;;;;;;;;;;;;;;;15.45;70.30;99457.59;3309932;29;20216;-75
2021/09/09 01:33:14;;;;;;;;;;;;;;;15.45;70.40;99457.59;3312055;29;20024;-73
2021/09/09 01:34:55;;;;;;;;;;;;;;;15.44;70.47;99461.34;3312859;29;20294;-73
2021/09/09 01:36:35;;;;;;;;;;;;;;;15.43;70.59;99470.44;3312407;29;19936;-75
2021/09/09 01:38:22;;;;;;;;;;;;;;;15.43;70.50;99454.31;3313002;29;19929;-75
2021/09/09 01:40:04;;;;;;;;;;;;;;;15.41;70.47;99462.63;3309064;29;19996;-73
2021/09/09 01:41:45;;;;;;;;;;;;;;;15.40;70.62;99454.78;3310349;29;19933;-75
2021/09/09 01:43:25;;;;;;;;;;;;;;;15.39;70.63;99450.47;3312175;29;20460;-76
2021/09/09 01:45:08;;;;;;;;;;;;;;;15.39;70.48;99458.53;3309062;29;20379;-76
2021/09/09 01:46:49;;;;;;;;;;;;;;;15.38;70.42;99456.88;3311871;29;19951;-74
2021/09/09 01:48:30;;;;;;;;;;;;;;;15.37;70.42;99450.69;3310454;29;19944;-74
2021/09/09 01:50:10;;;;;;;;;;;;;;;15.39;70.54;99453.16;3311732;29;20078;-74
2021/09/09 01:51:51;;;;;;;;;;;;;;;15.40;70.53;99455.59;3310577;29;19986;-74
2021/09/09 01:53:31;;;;;;;;;;;;;;;15.41;70.62;99449.19;3312363;29;20002;-73
2021/09/09 01:55:12;;;;;;;;;;;;;;;15.43;70.73;99448.94;3311785;29;19929;-74
2021/09/09 01:56:52;;;;;;;;;;;;;;;15.43;70.34;99448.94;3312120;29;19982;-75
2021/09/09 01:58:33;;;;;;;;;;;;;;;15.44;70.63;99456.78;3312517;29;19929;-74
2021/09/09 02:00:14;;;;;;;;;;;;;;;15.45;70.15;99458.41;3312196;29;20386;-77
2021/09/09 02:01:54;;;;;;;;;;;;;;;15.48;70.29;99457.13;3308526;29;19932;-75
2021/09/09 02:03:35;;;;;;;;;;;;;;;15.49;70.36;99454.22;3312736;29;19936;-75
2021/09/09 02:05:15;;;;;;;;;;;;;;;15.49;70.48;99443.47;3313092;29;19956;-74
2021/09/09 02:06:56;;;;;;;;;;;;;;;15.48;70.21;99451.75;3311472;29;19933;-74
2021/09/09 02:08:37;;;;;;;;;;;;;;;15.47;70.37;99444.75;3312767;29;19925;-75
2021/09/09 02:10:20;;;;;;;;;;;;;;;15.45;70.36;99446.84;3313085;29;19936;-76
2021/09/09 02:12:01;;;;;;;;;;;;;;;15.43;70.37;99448.94;3309598;29;19936;-75
2021/09/09 02:13:41;;;;;;;;;;;;;;;15.45;70.29;99444.16;3312147;29;20401;-74
2021/09/09 02:15:22;;;;;;;;;;;;;;;15.46;70.25;99449.31;3312991;29;20035;-73
2021/09/09 02:17:03;;;;;;;;;;;;;;;15.46;70.46;99438.56;3311693;29;20291;-74
2021/09/09 02:18:43;;;;;;;;;;;;;;;15.45;70.13;99444.16;3311551;29;19986;-74
2021/09/09 02:20:24;;;;;;;;;;;;;;;15.44;70.37;99451.41;3312789;29;20378;-74
2021/09/09 02:22:04;;;;;;;;;;;;;;;15.45;70.47;99454.91;3308297;29;20731;-74
2021/09/09 02:23:45;;;;;;;;;;;;;;;15.46;70.23;99453.84;3312591;29;19936;-74
2021/09/09 02:25:25;;;;;;;;;;;;;;;15.47;70.30;99444.75;3311619;29;19936;-74
2021/09/09 02:27:06;;;;;;;;;;;;;;;15.50;70.16;99436.22;3311776;29;19929;-74
2021/09/09 02:28:46;;;;;;;;;;;;;;;15.53;70.25;99448.38;3312869;29;19929;-74
2021/09/09 02:30:27;;;;;;;;;;;;;;;15.53;70.27;99443.81;3312515;29;20484;-75
2021/09/09 02:32:07;;;;;;;;;;;;;;;15.52;69.96;99442.19;3310764;29;19968;-75
2021/09/09 02:33:48;;;;;;;;;;;;;;;15.52;70.12;99446.75;3310709;29;20390;-74
2021/09/09 02:35:28;;;;;;;;;;;;;;;15.52;70.23;99450.25;3312144;29;19933;-74
2021/09/09 02:37:09;;;;;;;;;;;;;;;15.51;70.13;99440.53;3313051;29;19929;-74
2021/09/09 02:38:50;;;;;;;;;;;;;;;15.52;70.00;99442.19;3312528;29;19936;-75
2021/09/09 02:40:30;;;;;;;;;;;;;;;15.52;70.11;99447.56;3310896;29;20058;-74
2021/09/09 02:42:11;;;;;;;;;;;;;;;15.52;70.08;99447.56;3310997;29;19929;-74
2021/09/09 02:43:52;;;;;;;;;;;;;;;15.52;70.34;99439.50;3309927;29;19971;-74
2021/09/09 02:45:32;;;;;;;;;;;;;;;15.53;70.30;99433.06;3312141;29;20801;-74
2021/09/09 02:47:13;;;;;;;;;;;;;;;15.54;70.17;99434.72;3311708;29;20019;-73
2021/09/09 02:48:53;;;;;;;;;;;;;;;15.53;70.14;99430.38;3311683;29;20319;-75
2021/09/09 02:50:34;;;;;;;;;;;;;;;15.54;70.16;99434.72;3312106;29;19932;-74
2021/09/09 02:52:15;;;;;;;;;;;;;;;15.56;70.02;99437.97;3308654;29;19937;-75
2021/09/09 02:53:55;;;;;;;;;;;;;;;15.56;69.97;99431.78;3308252;29;19929;-74
2021/09/09 02:55:36;;;;;;;;;;;;;;;15.57;70.14;99438.81;3312067;29;19932;-75
2021/09/09 02:57:16;;;;;;;;;;;;;;;15.57;70.09;99436.13;3311507;29;20499;-75
2021/09/09 02:58:57;;;;;;;;;;;;;;;15.57;70.17;99444.19;3312472;29;19936;-76
2021/09/09 03:00:38;;;;;;;;;;;;;;;15.55;70.07;99441.72;3308231;29;19936;-75
2021/09/09 03:02:19;;;;;;;;;;;;;;;15.54;70.03;99437.41;3302608;29;20389;-75
2021/09/09 03:03:59;;;;;;;;;;;;;;;15.53;70.25;99437.63;3310899;29;19929;-75
2021/09/09 03:05:40;;;;;;;;;;;;;;;15.52;70.41;99431.44;3311598;29;19929;-76
2021/09/09 03:07:20;;;;;;;;;;;;;;;15.50;70.51;99428.16;3311203;29;20032;-76
2021/09/09 03:09:01;;;;;;;;;;;;;;;15.48;70.34;99436.44;3311608;29;20401;-75
2021/09/09 03:10:42;;;;;;;;;;;;;;;15.51;70.29;99432.47;3321125;29;20028;-75
2021/09/09 03:12:22;;;;;;;;;;;;;;;15.52;70.17;99439.50;3314838;29;20004;-75
2021/09/09 03:14:03;;;;;;;;;;;;;;;15.53;70.46;99438.44;3308992;29;19929;-74
2021/09/09 03:15:43;;;;;;;;;;;;;;;15.57;70.27;99438.81;3312387;29;20040;-74
2021/09/09 03:17:24;;;;;;;;;;;;;;;15.59;70.32;99442.91;3309814;29;20014;-74
2021/09/09 03:19:04;;;;;;;;;;;;;;;15.61;70.02;99446.16;3311741;29;19933;-74
2021/09/09 03:20:45;;;;;;;;;;;;;;;15.61;70.08;99439.97;3311707;29;20020;-74
2021/09/09 03:22:25;;;;;;;;;;;;;;;15.61;70.04;99440.78;3311370;29;20429;-75
2021/09/09 03:24:06;;;;;;;;;;;;;;;15.62;70.28;99442.44;3310107;29;19929;-75
2021/09/09 03:25:47;;;;;;;;;;;;;;;15.65;69.97;99446.53;3312006;29;19933;-74
2021/09/09 03:27:29;;;;;;;;;;;;;;;15.68;70.10;99446.03;3311709;29;20001;-74
2021/09/09 03:29:10;;;;;;;;;;;;;;;15.69;69.97;99443.16;3312384;29;19970;-73
2021/09/09 03:30:50;;;;;;;;;;;;;;;15.71;69.79;99445.59;3312255;29;20028;-72
2021/09/09 03:32:31;;;;;;;;;;;;;;;15.72;69.99;99452.63;3310846;29;19933;-74
2021/09/09 03:34:11;;;;;;;;;;;;;;;15.73;70.00;99456.94;3309799;29;19930;-74
2021/09/09 03:35:52;;;;;;;;;;;;;;;15.75;69.83;99456.69;3311706;29;20453;-75
2021/09/09 03:37:32;;;;;;;;;;;;;;;15.75;69.89;99457.53;3311689;29;20446;-75
2021/09/09 03:39:13;;;;;;;;;;;;;;;15.76;69.93;99452.97;3312305;29;20041;-76
2021/09/09 03:40:53;;;;;;;;;;;;;;;15.76;69.96;99453.78;3312118;29;20011;-76
2021/09/09 03:42:34;;;;;;;;;;;;;;;15.77;69.74;99458.09;3311096;29;20355;-76
2021/09/09 03:44:14;;;;;;;;;;;;;;;15.78;69.95;99456.25;3309918;29;19936;-77
2021/09/09 03:45:55;;;;;;;;;;;;;;;15.79;69.69;99452.50;3312133;29;20032;-76
2021/09/09 03:47:36;;;;;;;;;;;;;;;15.79;69.52;99452.50;3311137;29;19929;-77
2021/09/09 03:49:16;;;;;;;;;;;;;;;15.80;69.54;99456.81;3312123;29;19929;-77
2021/09/09 03:50:57;;;;;;;;;;;;;;;15.81;70.04;99453.09;3311214;29;20475;-78
2021/09/09 03:52:37;;;;;;;;;;;;;;;15.81;69.89;99447.72;3320599;29;19929;-78
2021/09/09 03:54:18;;;;;;;;;;;;;;;15.83;69.83;99454.47;3307654;29;19973;-76
2021/09/09 03:55:58;;;;;;;;;;;;;;;15.83;69.81;99453.69;3310374;29;20027;-76
2021/09/09 03:57:39;;;;;;;;;;;;;;;15.84;69.82;99457.97;3310234;29;20020;-76
2021/09/09 03:59:19;;;;;;;;;;;;;;;15.85;69.72;99457.75;3312074;29;19929;-76
2021/09/09 04:01:00;;;;;;;;;;;;;;;15.85;69.57;99459.59;3310793;29;19929;-75
2021/09/09 04:02:41;;;;;;;;;;;;;;;15.84;69.79;99464.16;3314417;29;19929;-75
2021/09/09 04:04:21;;;;;;;;;;;;;;;15.85;69.70;99468.50;3311715;29;19929;-75
2021/09/09 04:06:02;;;;;;;;;;;;;;;15.84;69.79;99463.34;3312757;29;19936;-74
2021/09/09 04:07:42;;;;;;;;;;;;;;;15.85;69.77;99464.97;3312828;29;19996;-75
2021/09/09 04:09:23;;;;;;;;;;;;;;;15.85;69.86;99473.03;3313626;29;19929;-74
2021/09/09 04:11:03;;;;;;;;;;;;;;;15.85;69.83;99473.03;3314487;29;19929;-73
2021/09/09 04:12:44;;;;;;;;;;;;;;;15.84;70.02;99472.22;3314406;29;19951;-72
2021/09/09 04:14:24;;;;;;;;;;;;;;;15.84;69.81;99474.91;3311190;29;19929;-76
2021/09/09 04:16:05;;;;;;;;;;;;;;;15.82;69.96;99478.91;3314121;29;20368;-76
2021/09/09 04:17:45;;;;;;;;;;;;;;;15.82;69.78;99476.22;3312749;29;19961;-74
2021/09/09 04:19:26;;;;;;;;;;;;;;;15.82;69.73;99481.59;3313499;29;20313;-75
2021/09/09 04:21:07;;;;;;;;;;;;;;;15.83;69.96;99480.56;3312891;29;19936;-73
2021/09/09 04:22:47;;;;;;;;;;;;;;;15.85;69.98;99478.41;3314504;29;19929;-72
2021/09/09 04:24:28;;;;;;;;;;;;;;;15.85;69.80;99478.41;3311092;29;20031;-71
2021/09/09 04:26:08;;;;;;;;;;;;;;;15.86;70.03;99480.06;3314010;29;19961;-73
2021/09/09 04:27:48;;;;;;;;;;;;;;;15.86;69.83;99480.06;3312991;29;19985;-76
2021/09/09 04:29:29;;;;;;;;;;;;;;;15.86;69.76;99486.25;3314433;29;19929;-73
2021/09/09 04:31:10;;;;;;;;;;;;;;;15.86;69.65;99486.25;3304741;29;20398;-74
2021/09/09 04:32:50;;;;;;;;;;;;;;;15.88;69.88;99488.72;3310142;29;19933;-75
2021/09/09 04:34:31;;;;;;;;;;;;;;;15.88;69.91;99488.72;3309706;29;19957;-75
2021/09/09 04:36:11;;;;;;;;;;;;;;;15.89;69.61;99484.97;3314103;29;19929;-73
2021/09/09 04:37:55;;;;;;;;;;;;;;;15.90;69.80;99491.97;3314088;29;20447;-76
2021/09/09 04:39:35;;;;;;;;;;;;;;;15.91;69.82;99489.06;3312889;29;19985;-74
2021/09/09 04:41:16;;;;;;;;;;;;;;;15.93;69.76;99480.78;3313206;29;19986;-74
2021/09/09 04:42:57;;;;;;;;;;;;;;;15.93;69.51;99494.22;3324801;29;20015;-76
2021/09/09 04:44:37;;;;;;;;;;;;;;;15.92;69.68;99485.31;3313730;29;19929;-75
2021/09/09 04:46:18;;;;;;;;;;;;;;;15.93;69.37;99480.78;3313231;29;20338;-74
2021/09/09 04:48:00;;;;;;;;;;;;;;;15.96;69.81;99482.19;3313854;29;19933;-74
2021/09/09 04:49:40;;;;;;;;;;;;;;;15.96;69.82;99485.69;3313256;29;20292;-76
2021/09/09 04:51:21;;;;;;;;;;;;;;;15.94;69.74;99490.47;3313793;29;19929;-75
2021/09/09 04:53:01;;;;;;;;;;;;;;;15.94;69.45;99487.78;3314419;29;19933;-74
2021/09/09 04:54:42;;;;;;;;;;;;;;;15.95;69.69;99481.34;3310639;29;19936;-74
2021/09/09 04:56:23;;;;;;;;;;;;;;;15.95;69.59;99483.22;3307935;29;19929;-77
2021/09/09 04:58:03;;;;;;;;;;;;;;;15.95;69.57;99484.03;3308103;29;19933;-75
2021/09/09 04:59:44;;;;;;;;;;;;;;;15.96;69.66;99480.31;3308874;29;19936;-75
2021/09/09 05:01:24;;;;;;;;;;;;;;;15.97;69.44;99479.25;3319332;29;19933;-75
2021/09/09 05:03:05;;;;;;;;;;;;;;;15.99;69.72;99479.00;3306883;29;19937;-75
2021/09/09 05:04:46;;;;;;;;;;;;;;;16.00;69.80;99480.63;3307869;29;19929;-74
2021/09/09 05:06:26;;;;;;;;;;;;;;;16.03;69.20;99477.47;3307991;29;20310;-75
2021/09/09 05:08:07;;;;;;;;;;;;;;;16.07;69.44;99482.16;3300945;29;21141;-75
2021/09/09 05:09:47;;;;;;;;;;;;;;;16.13;70.13;99475.84;3305928;29;19929;-76
2021/09/09 05:11:28;;;;;;;;;;;;;;;16.21;69.90;99479.22;3312754;29;19932;-75
2021/09/09 05:13:08;;;;;;;;;;;;;;;16.28;70.12;99483.41;3308365;29;20066;-76
2021/09/09 05:14:49;;;;;;;;;;;;;;;16.34;70.01;99476.25;3306821;29;19955;-76
2021/09/09 05:16:30;;;;;;;;;;;;;;;16.41;69.99;99493.09;3310950;29;19971;-75
2021/09/09 05:18:10;;;;;;;;;;;;;;;16.47;70.19;99489.47;3322540;29;20449;-75
2021/09/09 05:19:51;;;;;;;;;;;;;;;16.53;69.97;99482.31;3305624;29;19930;-77
2021/09/09 05:21:31;;;;;;;;;;;;;;;16.60;70.19;99485.69;3306553;29;19936;-75
2021/09/09 05:23:14;;;;;;;;;;;;;;;16.63;70.23;99479.81;3311104;29;20425;-76
2021/09/09 05:24:55;;;;;;;;;;;;;;;16.67;69.94;99482.84;3307797;29;19933;-76
2021/09/09 05:26:36;;;;;;;;;;;;;;;16.71;70.06;99484.00;3312758;29;19929;-76
2021/09/09 05:28:16;;;;;;;;;;;;;;;16.77;70.27;99485.72;3311265;29;19929;-76
2021/09/09 05:29:57;;;;;;;;;;;;;;;16.82;70.21;99483.16;3312562;29;20038;-80
2021/09/09 05:31:37;;;;;;;;;;;;;;;16.84;69.80;99488.31;3293625;29;19929;-77
2021/09/09 05:33:18;;;;;;;;;;;;;;;16.84;69.99;99481.06;3307999;29;19929;-76
2021/09/09 05:34:59;;;;;;;;;;;;;;;16.86;70.13;99489.72;3310056;29;20086;-74
2021/09/09 05:36:39;;;;;;;;;;;;;;;16.89;70.17;99488.41;3312551;29;19938;-76
2021/09/09 05:38:20;;;;;;;;;;;;;;;16.94;70.18;99489.31;3313230;29;20373;-76
2021/09/09 05:40:00;;;;;;;;;;;;;;;16.97;70.10;99480.75;3313230;29;19936;-75
2021/09/09 05:41:41;;;;;;;;;;;;;;;17.00;70.03;99485.66;3309740;29;19921;-73
2021/09/09 05:43:21;;;;;;;;;;;;;;;17.04;70.44;99487.84;3308083;29;19933;-75
2021/09/09 05:45:02;;;;;;;;;;;;;;;17.05;70.11;99478.72;3309408;29;19936;-74
2021/09/09 05:46:43;;;;;;;;;;;;;;;17.05;70.16;99487.63;3309787;29;19945;-74
2021/09/09 05:48:23;;;;;;;;;;;;;;;17.06;69.80;99485.75;3311545;29;21527;-75
2021/09/09 05:50:04;;;;;;;;;;;;;;;17.08;70.09;99480.94;3312986;29;19985;-76
2021/09/09 05:51:45;;;;;;;;;;;;;;;17.12;70.19;99487.50;3308309;29;19936;-77
2021/09/09 05:53:25;;;;;;;;;;;;;;;17.19;70.08;99488.13;3305982;29;19929;-73
2021/09/09 05:55:06;;;;;;;;;;;;;;;17.21;69.96;99480.63;3307144;29;19967;-73
2021/09/09 05:56:46;;;;;;;;;;;;;;;17.23;69.82;99483.91;3318141;29;19928;-72
2021/09/09 05:58:27;;;;;;;;;;;;;;;17.29;70.00;99484.78;3309827;29;19933;-73
2021/09/09 06:00:08;;;;;;;;;;;;;;;17.32;69.65;99485.16;3309080;29;19999;-73
2021/09/09 06:01:50;;;;;;;;;;;;;;;17.34;69.60;99485.69;3309344;29;19936;-73
2021/09/09 06:03:31;;;;;;;;;;;;;;;17.36;69.93;99488.97;3308220;29;19929;-75
2021/09/09 06:05:12;;;;;;;;;;;;;;;17.38;69.49;99486.84;3305236;29;19939;-75
2021/09/09 06:06:53;;;;;;;;;;;;;;;17.40;69.27;99479.34;3307333;29;20027;-73
2021/09/09 06:08:37;;;;;;;;;;;;;;;17.39;69.11;99493.06;3307449;29;20020;-73
2021/09/09 06:10:17;;;;;;;;;;;;;;;17.36;68.95;99474.69;3307411;29;19940;-74
2021/09/09 06:11:58;;;;;;;;;;;;;;;17.33;69.07;99483.25;3306278;29;20759;-74
2021/09/09 06:13:38;;;;;;;;;;;;;;;17.29;69.34;99482.91;3306700;29;19929;-73
2021/09/09 06:15:19;;;;;;;;;;;;;;;17.25;69.03;99487.16;3306639;29;20067;-73
2021/09/09 06:16:59;;;;;;;;;;;;;;;17.22;68.87;99493.84;3306867;29;19940;-74
2021/09/09 06:18:42;;;;;;;;;;;;;;;17.21;68.81;99489.50;3305212;29;19936;-75
2021/09/09 06:20:23;;;;;;;;;;;;;;;17.21;68.68;99483.31;3306709;29;19929;-75
2021/09/09 06:22:04;;;;;;;;;;;;;;;17.21;68.69;99483.31;3305844;29;19929;-73
2021/09/09 06:23:45;;;;;;;;;;;;;;;17.19;68.62;99482.75;3307216;29;20012;-76
2021/09/09 06:25:27;;;;;;;;;;;;;;;17.18;68.62;99481.13;3306034;29;19929;-73
2021/09/09 06:27:07;;;;;;;;;;;;;;;17.17;68.54;99482.19;3319961;29;20312;-75
2021/09/09 06:28:49;;;;;;;;;;;;;;;17.18;68.64;99481.13;3310129;29;20019;-75
2021/09/09 06:30:33;;;;;;;;;;;;;;;17.19;68.37;99482.75;3307613;29;20461;-73
2021/09/09 06:32:13;;;;;;;;;;;;;;;17.19;68.45;99482.75;3306527;29;20458;-74
2021/09/09 06:33:54;;;;;;;;;;;;;;;17.19;68.43;99493.50;3307862;29;19955;-73
2021/09/09 06:35:34;;;;;;;;;;;;;;;17.17;68.52;99490.28;3312134;29;19929;-74
2021/09/09 06:37:17;;;;;;;;;;;;;;;17.17;68.27;99484.88;3311270;29;20304;-72
2021/09/09 06:38:57;;;;;;;;;;;;;;;17.18;68.53;99483.81;3311708;29;19929;-73
2021/09/09 06:40:38;;;;;;;;;;;;;;;17.18;68.23;99486.50;3311795;29;19936;-72
2021/09/09 06:42:19;;;;;;;;;;;;;;;17.19;68.62;99491.66;3311274;29;20074;-74
2021/09/09 06:44:01;;;;;;;;;;;;;;;17.21;68.17;99494.09;3311283;29;20413;-74
2021/09/09 06:45:42;;;;;;;;;;;;;;;17.24;68.06;99490.91;3311646;29;19933;-73
2021/09/09 06:47:22;;;;;;;;;;;;;;;17.20;68.16;99482.50;3310188;29;19929;-74
2021/09/09 06:49:03;;;;;;;;;;;;;;;17.27;68.03;99485.06;3311101;29;19933;-75
2021/09/09 06:50:44;;;;;;;;;;;;;;;17.29;68.07;99490.19;3311378;29;19929;-74
2021/09/09 06:52:25;;;;;;;;;;;;;;;17.33;67.72;99483.25;3311232;29;19996;-74
2021/09/09 06:54:06;;;;;;;;;;;;;;;17.36;68.08;99491.66;3310383;29;19978;-74
2021/09/09 06:55:46;;;;;;;;;;;;;;;17.39;68.08;99495.75;3311255;29;20055;-74
2021/09/09 06:57:27;;;;;;;;;;;;;;;17.41;67.83;99496.31;3311059;29;19985;-73
2021/09/09 06:59:10;;;;;;;;;;;;;;;17.44;67.77;99498.53;3311130;29;20441;-71
2021/09/09 07:00:50;;;;;;;;;;;;;;;17.45;67.93;99497.47;3309697;29;19933;-70
2021/09/09 07:02:31;;;;;;;;;;;;;;;17.45;67.75;99492.09;3311270;29;19933;-75
2021/09/09 07:04:12;;;;;;;;;;;;;;;17.47;68.02;99502.59;3311815;29;20055;-75
2021/09/09 07:05:52;;;;;;;;;;;;;;;17.44;67.91;99499.34;3309639;29;20064;-76
2021/09/09 07:07:33;;;;;;;;;;;;;;;17.46;67.88;99501.00;3311028;29;20398;-74
2021/09/09 07:09:13;;;;;;;;;;;;;;;17.44;67.64;99507.41;3310414;29;19996;-74
2021/09/09 07:10:54;;;;;;;;;;;;;;;17.41;68.30;99507.91;3311371;29;20286;-75
2021/09/09 07:12:34;;;;;;;;;;;;;;;17.39;68.21;99507.34;3311778;29;19932;-72
2021/09/09 07:14:15;;;;;;;;;;;;;;;17.39;68.39;99511.91;3300792;29;20282;-75
2021/09/09 07:15:58;;;;;;;;;;;;;;;17.37;68.27;99506.78;3305484;29;20396;-74
2021/09/09 07:17:40;;;;;;;;;;;;;;;17.35;68.43;99506.22;3311786;29;19937;-79
2021/09/09 07:19:23;;;;;;;;;;;;;;;17.36;68.47;99510.53;3311233;29;19933;-81
2021/09/09 07:21:05;;;;;;;;;;;;;;;17.39;68.40;99506.53;3310380;29;20433;-79
2021/09/09 07:22:45;;;;;;;;;;;;;;;17.42;68.31;99509.56;3311168;29;19929;-77
2021/09/09 07:24:26;;;;;;;;;;;;;;;17.48;68.19;99509.63;3311186;29;19929;-78
2021/09/09 07:26:06;;;;;;;;;;;;;;;17.53;67.92;99518.63;3311279;29;20393;-78
2021/09/09 07:27:47;;;;;;;;;;;;;;;17.59;68.06;99514.13;3323699;29;20367;-78
2021/09/09 07:29:27;;;;;;;;;;;;;;;17.66;67.97;99520.19;3314290;29;19929;-80
2021/09/09 07:31:08;;;;;;;;;;;;;;;17.76;67.41;99509.56;3312409;29;20027;-78
2021/09/09 07:32:48;;;;;;;;;;;;;;;17.86;67.37;99517.84;3312281;29;20309;-79
2021/09/09 07:34:29;;;;;;;;;;;;;;;17.98;67.32;99517.72;3312109;29;19977;-79
2021/09/09 07:36:09;;;;;;;;;;;;;;;18.08;66.87;99520.56;3311019;29;19972;-80
2021/09/09 07:37:50;;;;;;;;;;;;;;;18.20;66.67;99515.09;3323444;29;19936;-79
2021/09/09 07:39:30;;;;;;;;;;;;;;;18.30;66.53;99509.84;3316954;29;19929;-79
2021/09/09 07:41:11;;;;;;;;;;;;;;;18.40;66.38;99513.72;3315286;29;19929;-79
2021/09/09 07:42:51;;;;;;;;;;;;;;;18.48;66.25;99511.41;3325976;29;19976;-79
2021/09/09 07:44:32;;;;;;;;;;;;;;;18.55;66.18;99526.59;3317385;29;20027;-79
2021/09/09 07:46:12;;;;;;;;;;;;;;;18.59;66.09;99522.34;3314876;29;20039;-79
2021/09/09 07:47:53;;;;;;;;;;;;;;;18.62;66.13;99517.25;3314786;29;19936;-78
2021/09/09 07:49:34;;;;;;;;;;;;;;;18.65;66.01;99522.13;3314875;29;20024;-79
2021/09/09 07:51:18;;;;;;;;;;;;;;;18.69;65.76;99517.03;3315004;29;20306;-78
2021/09/09 07:52:58;;;;;;;;;;;;;;;18.75;66.07;99518.78;3314635;29;19937;-79
2021/09/09 07:54:39;;;;;;;;;;;;;;;18.83;65.44;99518.31;3314634;29;19929;-79
2021/09/09 07:56:19;;;;;;;;;;;;;;;18.91;65.67;99517.06;3314592;29;19929;-79
2021/09/09 07:58:00;;;;;;;;;;;;;;;18.99;65.11;99516.59;3315004;29;20807;-78
2021/09/09 07:59:41;;;;;;;;;;;;;;;19.03;65.38;99512.31;3314937;29;20371;-79
2021/09/09 08:01:21;;;;;;;;;;;;;;;19.07;65.41;99509.91;3314732;29;19936;-78
2021/09/09 08:03:02;;;;;;;;;;;;;;;19.11;65.20;99519.97;3315055;29;20350;-79
2021/09/09 08:04:42;;;;;;;;;;;;;;;19.16;65.19;99521.91;3314698;29;19985;-78
2021/09/09 08:06:23;;;;;;;;;;;;;;;19.18;64.72;99517.88;3314110;29;19929;-79
2021/09/09 08:08:04;;;;;;;;;;;;;;;19.19;64.95;99524.09;3316578;29;19929;-78
2021/09/09 08:09:45;;;;;;;;;;;;;;;19.16;64.75;99522.72;3316600;29;20027;-78
2021/09/09 08:11:25;;;;;;;;;;;;;;;19.11;64.98;99525.38;3316740;29;21142;-79
2021/09/09 08:13:06;;;;;;;;;;;;;;;19.06;64.93;99522.63;3316313;29;19936;-78
2021/09/09 08:14:46;;;;;;;;;;;;;;;19.05;64.97;99518.31;3313837;29;20436;-78
2021/09/09 08:16:27;;;;;;;;;;;;;;;19.06;64.69;99519.91;3314549;29;19929;-80
2021/09/09 08:18:07;;;;;;;;;;;;;;;19.09;64.98;99521.28;3326090;29;19928;-79
2021/09/09 08:19:48;;;;;;;;;;;;;;;19.13;64.81;99520.53;3313585;29;20298;-79
2021/09/09 08:21:29;;;;;;;;;;;;;;;19.18;64.81;99526.00;3314035;29;19929;-80
2021/09/09 08:23:09;;;;;;;;;;;;;;;19.23;64.84;99521.69;3314806;29;19929;-80
2021/09/09 08:24:50;;;;;;;;;;;;;;;19.26;64.52;99527.41;3313225;29;19936;-78
2021/09/09 08:26:30;;;;;;;;;;;;;;;19.26;64.34;99526.59;3313982;29;19929;-79
2021/09/09 08:28:11;;;;;;;;;;;;;;;19.24;64.56;99526.84;3314622;29;20047;-79
2021/09/09 08:29:51;;;;;;;;;;;;;;;19.24;64.34;99524.16;3314381;29;19929;-78
2021/09/09 08:31:32;;;;;;;;;;;;;;;19.23;64.62;99522.50;3314530;29;19939;-78
2021/09/09 08:33:13;;;;;;;;;;;;;;;19.24;64.49;99517.94;3314985;29;19929;-79
2021/09/09 08:34:54;;;;;;;;;;;;;;;19.25;64.17;99524.97;3313565;29;20020;-81
2021/09/09 08:36:34;;;;;;;;;;;;;;;19.27;64.32;99523.63;3315041;29;19936;-79
2021/09/09 08:38:15;;;;;;;;;;;;;;;19.41;64.11;99524.03;3326582;29;19929;-79
2021/09/09 08:39:55;;;;;;;;;;;;;;;19.57;63.66;99515.00;3317886;29;19929;-79
2021/09/09 08:41:36;;;;;;;;;;;;;;;19.70;63.46;99521.88;3315930;29;19933;-80
2021/09/09 08:43:17;;;;;;;;;;;;;;;19.78;63.12;99526.00;3315239;29;19929;-79
2021/09/09 08:44:57;;;;;;;;;;;;;;;19.82;63.15;99521.69;3315950;29;19936;-79